createdAt,value
2023-01-21T00:01:25.089Z,96469.15
2023-01-21T00:03:53.929Z,96477.51
2023-01-21T00:06:22.648Z,96483.52
2023-01-21T00:08:51.425Z,96487.84
2023-01-21T00:11:20.218Z,96493.13
2023-01-21T00:13:49.009Z,96498.89
2023-01-21T00:16:18.244Z,96498.69
2023-01-21T00:18:49.265Z,96502.52
2023-01-21T00:21:18.681Z,96505.33
2023-01-21T00:23:47.757Z,96510.10
2023-01-21T00:26:16.978Z,96514.39
2023-01-21T00:28:47.059Z,96521.00
2023-01-21T00:31:16.068Z,96527.20
2023-01-21T00:33:45.155Z,96525.38
2023-01-21T00:36:15.376Z,96534.14
2023-01-21T00:38:44.833Z,96532.79
2023-01-21T00:41:14.392Z,96540.50
2023-01-21T00:43:45.284Z,96544.29
2023-01-21T00:46:14.484Z,96546.58
2023-01-21T00:48:43.890Z,96549.54
2023-01-21T00:51:13.759Z,96553.19
2023-01-21T00:53:42.686Z,96559.52
2023-01-21T00:56:14.051Z,96563.02
2023-01-21T00:58:45.885Z,96563.79
2023-01-21T01:01:21.901Z,96567.23
2023-01-21T01:03:51.151Z,96570.52
2023-01-21T01:06:22.756Z,96575.98
2023-01-21T01:08:52.259Z,96587.19
2023-01-21T01:11:25.722Z,96596.36
2023-01-21T01:13:55.775Z,96599.66
2023-01-21T01:16:25.338Z,96601.45
2023-01-21T01:18:54.414Z,96606.05
2023-01-21T01:21:23.883Z,96609.33
2023-01-21T01:23:54.304Z,96611.91
2023-01-21T01:26:23.632Z,96615.26
2023-01-21T01:28:53.259Z,96617.20
2023-01-21T01:31:23.136Z,96617.09
2023-01-21T01:33:53.460Z,96618.66
2023-01-21T01:36:26.828Z,96622.58
2023-01-21T01:38:56.684Z,96628.77
2023-01-21T01:41:30.642Z,96628.84
2023-01-21T01:44:41.723Z,96631.39
2023-01-21T01:47:11.841Z,96627.35
2023-01-21T01:49:42.775Z,96629.35
2023-01-21T01:52:14.688Z,96632.30
2023-01-21T01:54:49.382Z,96635.66
2023-01-21T01:57:23.988Z,96641.70
2023-01-21T01:59:53.107Z,96647.20
2023-01-21T02:02:22.493Z,96648.77
2023-01-21T02:04:55.571Z,96652.29
2023-01-21T02:07:27.429Z,96656.41
2023-01-21T02:09:57.875Z,96661.55
2023-01-21T02:12:27.547Z,96667.83
2023-01-21T02:14:57.472Z,96668.17
2023-01-21T02:17:32.413Z,96668.96
2023-01-21T02:20:19.613Z,96666.74
2023-01-21T02:22:58.387Z,96666.84
2023-01-21T02:25:27.274Z,96665.71
2023-01-21T02:28:38.524Z,96669.34
2023-01-21T02:31:32.285Z,96669.01
2023-01-21T02:34:08.602Z,96672.20
2023-01-21T02:37:21.998Z,96672.14
2023-01-21T02:40:05.810Z,96670.91
2023-01-21T02:42:48.022Z,96667.12
2023-01-21T02:45:22.670Z,96666.10
2023-01-21T02:48:07.135Z,96660.61
2023-01-21T02:50:43.954Z,96660.23
2023-01-21T02:53:40.064Z,96660.13
2023-01-21T02:56:14.610Z,96661.55
2023-01-21T02:58:59.294Z,96660.39
2023-01-21T03:02:12.685Z,96671.85
2023-01-21T03:04:50.893Z,96682.96
2023-01-21T03:07:37.500Z,96688.98
2023-01-21T03:10:40.334Z,96694.85
2023-01-21T03:13:58.033Z,96695.85
2023-01-21T03:16:52.817Z,96699.98
2023-01-21T03:19:44.940Z,96697.66
2023-01-21T03:22:21.664Z,96699.31
2023-01-21T03:24:54.449Z,96702.85
2023-01-21T03:27:27.347Z,96705.54
2023-01-21T03:30:10.478Z,96710.60
2023-01-21T03:32:42.088Z,96709.38
2023-01-21T03:35:15.754Z,96709.54
2023-01-21T03:38:14.643Z,96712.02
2023-01-21T03:41:02.944Z,96719.80
2023-01-21T03:43:32.549Z,96723.17
2023-01-21T03:46:18.872Z,96728.23
2023-01-21T03:49:20.109Z,96730.92
2023-01-21T03:51:54.223Z,96739.96
2023-01-21T03:54:23.818Z,96749.23
2023-01-21T03:56:52.610Z,96755.05
2023-01-21T03:59:21.617Z,96755.02
2023-01-21T04:01:50.549Z,96754.68
2023-01-21T04:04:19.324Z,96752.77
2023-01-21T04:06:48.221Z,96755.27
2023-01-21T04:09:17.305Z,96755.89
2023-01-21T04:11:46.360Z,96753.40
2023-01-21T04:14:15.277Z,96752.42
2023-01-21T04:16:44.805Z,96753.71
2023-01-21T04:19:14.162Z,96751.98
2023-01-21T04:21:43.145Z,96750.95
2023-01-21T04:24:12.577Z,96750.41
2023-01-21T04:26:41.714Z,96751.56
2023-01-21T04:29:11.161Z,96759.70
2023-01-21T04:31:40.919Z,96766.33
2023-01-21T04:34:10.813Z,96768.83
2023-01-21T04:36:40.071Z,96777.27
2023-01-21T04:39:09.140Z,96783.64
2023-01-21T04:41:38.203Z,96784.50
2023-01-21T04:44:07.723Z,96794.73
2023-01-21T04:46:36.924Z,96804.38
2023-01-21T04:49:06.990Z,96815.58
2023-01-21T04:51:35.899Z,96820.95
2023-01-21T04:54:05.018Z,96828.54
2023-01-21T04:56:34.221Z,96835.08
2023-01-21T04:59:03.223Z,96837.98
2023-01-21T05:01:32.518Z,96836.60
2023-01-21T05:04:01.986Z,96830.39
2023-01-21T05:06:30.797Z,96823.45
2023-01-21T05:08:59.505Z,96811.05
2023-01-21T05:11:28.472Z,96801.96
2023-01-21T05:13:57.493Z,96807.81
2023-01-21T05:16:26.752Z,96811.88
2023-01-21T05:18:55.740Z,96811.69
2023-01-21T05:21:24.376Z,96814.08
2023-01-21T05:23:53.288Z,96814.62
2023-01-21T05:26:22.240Z,96818.15
2023-01-21T05:28:51.441Z,96825.14
2023-01-21T05:31:20.473Z,96824.59
2023-01-21T05:33:49.327Z,96825.52
2023-01-21T05:36:18.151Z,96829.02
2023-01-21T05:38:47.213Z,96830.86
2023-01-21T05:41:16.328Z,96826.69
2023-01-21T05:43:45.503Z,96825.83
2023-01-21T05:46:14.433Z,96831.73
2023-01-21T05:48:43.146Z,96838.16
2023-01-21T05:51:12.338Z,96842.64
2023-01-21T05:53:41.218Z,96850.65
2023-01-21T05:56:10.258Z,96848.26
2023-01-21T05:58:39.320Z,96844.77
2023-01-21T06:01:08.322Z,96847.86
2023-01-21T06:03:39.229Z,96855.39
2023-01-21T06:06:08.457Z,96860.37
2023-01-21T06:08:37.059Z,96857.98
2023-01-21T06:11:05.901Z,96862.73
2023-01-21T06:13:34.602Z,96864.57
2023-01-21T06:16:03.524Z,96875.52
2023-01-21T06:18:32.232Z,96890.81
2023-01-21T06:21:01.416Z,96898.05
2023-01-21T06:23:30.290Z,96898.95
2023-01-21T06:26:02.965Z,96902.23
2023-01-21T06:28:31.707Z,96907.33
2023-01-21T06:31:00.630Z,96911.89
2023-01-21T06:33:29.795Z,96915.17
2023-01-21T06:35:59.358Z,96926.86
2023-01-21T06:38:27.919Z,96937.04
2023-01-21T06:40:56.500Z,96940.55
2023-01-21T06:43:25.276Z,96934.45
2023-01-21T06:45:54.033Z,96938.41
2023-01-21T06:48:22.952Z,96941.66
2023-01-21T06:50:51.950Z,96932.76
2023-01-21T06:53:20.915Z,96925.34
2023-01-21T06:55:49.404Z,96929.41
2023-01-21T06:58:18.124Z,96940.83
2023-01-21T07:00:46.704Z,96945.81
2023-01-21T07:03:15.381Z,96956.93
2023-01-21T07:05:44.246Z,96953.63
2023-01-21T07:08:12.842Z,96943.49
2023-01-21T07:10:41.412Z,96940.02
2023-01-21T07:13:09.908Z,96941.08
2023-01-21T07:15:38.423Z,96939.98
2023-01-21T07:18:07.096Z,96941.91
2023-01-21T07:20:35.880Z,96947.00
2023-01-21T07:23:04.482Z,96953.09
2023-01-21T07:25:33.033Z,96957.00
2023-01-21T07:28:01.569Z,96962.66
2023-01-21T07:30:30.595Z,96968.27
2023-01-21T07:33:04.755Z,96976.98
2023-01-21T07:35:33.307Z,96981.69
2023-01-21T07:38:02.282Z,96992.63
2023-01-21T07:40:31.202Z,97000.06
2023-01-21T07:42:59.817Z,96997.54
2023-01-21T07:45:28.473Z,97000.56
2023-01-21T07:47:57.060Z,97007.23
2023-01-21T07:50:25.549Z,97005.84
2023-01-21T07:52:57.347Z,97005.55
2023-01-21T07:55:26.864Z,97014.52
2023-01-21T07:57:59.047Z,97020.27
2023-01-21T08:00:27.641Z,97018.80
2023-01-21T08:02:57.387Z,97024.20
2023-01-21T08:05:27.238Z,97017.40
2023-01-21T08:07:58.694Z,97016.13
2023-01-21T08:10:27.676Z,97017.86
2023-01-21T08:12:56.255Z,97013.84
2023-01-21T08:15:24.826Z,97009.98
2023-01-21T08:17:53.393Z,97007.91
2023-01-21T08:20:22.152Z,97004.41
2023-01-21T08:22:50.926Z,97007.52
2023-01-21T08:25:19.737Z,97018.64
2023-01-21T08:27:48.333Z,97028.94
2023-01-21T08:30:17.575Z,97029.81
2023-01-21T08:32:46.416Z,97036.39
2023-01-21T08:35:15.352Z,97047.71
2023-01-21T08:37:44.676Z,97053.41
2023-01-21T08:40:13.644Z,97056.11
2023-01-21T08:42:42.536Z,97065.77
2023-01-21T08:45:13.751Z,97080.55
2023-01-21T08:47:43.698Z,97087.73
2023-01-21T08:50:12.287Z,97092.18
2023-01-21T08:52:40.965Z,97094.89
2023-01-21T08:55:10.762Z,97090.96
2023-01-21T08:57:39.361Z,97081.42
2023-01-21T09:00:09.068Z,97068.33
2023-01-21T09:02:37.545Z,97063.70
2023-01-21T09:05:07.160Z,97062.13
2023-01-21T09:07:36.350Z,97072.53
2023-01-21T09:10:06.336Z,97085.91
2023-01-21T09:12:35.470Z,97092.52
2023-01-21T09:15:05.606Z,97095.85
2023-01-21T09:17:34.582Z,97093.25
2023-01-21T09:20:03.672Z,97091.36
2023-01-21T09:22:32.566Z,97081.25
2023-01-21T09:25:10.773Z,97079.51
2023-01-21T09:27:39.354Z,97079.85
2023-01-21T09:30:08.817Z,97079.96
2023-01-21T09:32:37.456Z,97078.94
2023-01-21T09:35:06.883Z,97079.29
2023-01-21T09:37:38.826Z,97079.73
2023-01-21T09:40:16.720Z,97081.54
2023-01-21T09:42:47.643Z,97085.47
2023-01-21T09:45:18.451Z,97093.57
2023-01-21T09:47:50.546Z,97092.16
2023-01-21T09:50:24.456Z,97081.27
2023-01-21T09:53:01.027Z,97081.32
2023-01-21T09:55:40.975Z,97077.60
2023-01-21T09:58:12.542Z,97076.80
2023-01-21T10:00:48.433Z,97079.39
2023-01-21T10:03:46.981Z,97082.53
2023-01-21T10:06:15.763Z,97078.85
2023-01-21T10:09:09.545Z,97081.82
2023-01-21T10:12:16.109Z,97085.45
2023-01-21T10:15:22.270Z,97093.42
2023-01-21T10:18:02.426Z,97075.79
2023-01-21T10:20:48.314Z,97065.89
2023-01-21T10:23:32.152Z,97063.86
2023-01-21T10:26:08.107Z,97061.17
2023-01-21T10:28:41.132Z,97063.60
2023-01-21T10:31:24.200Z,97071.80
2023-01-21T10:33:53.736Z,97068.41
2023-01-21T10:36:45.146Z,97070.66
2023-01-21T10:39:52.125Z,97069.65
2023-01-21T10:42:26.956Z,97067.64
2023-01-21T10:45:06.085Z,97067.80
2023-01-21T10:47:40.196Z,97077.45
2023-01-21T10:50:47.730Z,97083.64
2023-01-21T10:53:31.735Z,97068.98
2023-01-21T10:56:06.360Z,97067.89
2023-01-21T10:58:43.780Z,97071.93
2023-01-21T11:01:28.144Z,97064.80
2023-01-21T11:04:05.291Z,97060.79
2023-01-21T11:06:35.836Z,97058.20
2023-01-21T11:09:07.237Z,97060.30
2023-01-21T11:11:37.680Z,97065.37
2023-01-21T11:14:06.381Z,97071.12
2023-01-21T11:16:46.132Z,97073.85
2023-01-21T11:19:17.903Z,97070.34
2023-01-21T11:22:06.558Z,97068.69
2023-01-21T11:24:45.369Z,97068.09
2023-01-21T11:27:23.280Z,97060.72
2023-01-21T11:29:51.948Z,97059.60
2023-01-21T11:32:24.060Z,97056.77
2023-01-21T11:35:20.451Z,97057.98
2023-01-21T11:37:49.238Z,97062.98
2023-01-21T11:40:29.085Z,97065.80
2023-01-21T11:42:57.462Z,97061.42
2023-01-21T11:45:36.966Z,97057.47
2023-01-21T11:48:20.798Z,97061.88
2023-01-21T11:50:49.550Z,97055.14
2023-01-21T11:53:19.524Z,97052.39
2023-01-21T11:55:54.708Z,97049.91
2023-01-21T11:58:35.776Z,97043.21
2023-01-21T12:01:11.830Z,97033.34
2023-01-21T12:03:49.848Z,97030.20
2023-01-21T12:06:23.016Z,97032.29
2023-01-21T12:08:56.001Z,97019.82
2023-01-21T12:11:28.292Z,97004.45
2023-01-21T12:14:25.317Z,97010.39
2023-01-21T12:17:12.460Z,97013.20
2023-01-21T12:20:03.551Z,97017.40
2023-01-21T12:23:13.605Z,97016.50
2023-01-21T12:25:53.967Z,97017.47
2023-01-21T12:28:25.410Z,97020.39
2023-01-21T12:31:23.901Z,97019.67
2023-01-21T12:34:10.089Z,97020.12
2023-01-21T12:36:48.611Z,97036.36
2023-01-21T12:39:29.278Z,97038.77
2023-01-21T12:42:18.858Z,97032.13
2023-01-21T12:44:47.437Z,97026.88
2023-01-21T12:47:30.450Z,97033.92
2023-01-21T12:50:16.452Z,97033.85
2023-01-21T12:53:04.393Z,97036.98
2023-01-21T12:56:00.815Z,97040.52
2023-01-21T12:58:40.971Z,97036.52
2023-01-21T13:01:14.639Z,97032.16
2023-01-21T13:04:04.459Z,97031.54
2023-01-21T13:06:52.741Z,97021.85
2023-01-21T13:09:54.772Z,97006.98
2023-01-21T13:12:29.763Z,96999.39
2023-01-21T13:15:04.606Z,97006.75
2023-01-21T13:17:35.639Z,97018.65
2023-01-21T13:20:19.580Z,97030.50
2023-01-21T13:23:27.213Z,97040.20
2023-01-21T13:26:22.834Z,97045.70
2023-01-21T13:29:40.875Z,97035.75
2023-01-21T13:32:19.501Z,97040.19
2023-01-21T13:34:57.616Z,97042.06
2023-01-21T13:37:37.342Z,97042.06
2023-01-21T13:40:15.135Z,97033.36
2023-01-21T13:43:11.278Z,97036.16
2023-01-21T13:45:52.390Z,97037.94
2023-01-21T13:48:49.764Z,97046.41
2023-01-21T13:51:27.660Z,97051.16
2023-01-21T13:54:20.842Z,97054.58
2023-01-21T13:56:52.778Z,97058.84
2023-01-21T14:00:07.862Z,97057.75
2023-01-21T14:02:57.829Z,97057.94
2023-01-21T14:05:35.348Z,97049.34
2023-01-21T14:08:26.903Z,97042.02
2023-01-21T14:11:16.286Z,97042.84
2023-01-21T14:14:05.219Z,97045.65
2023-01-21T14:17:11.025Z,97046.64
2023-01-21T14:20:01.572Z,97045.48
2023-01-21T14:22:55.446Z,97047.23
2023-01-21T14:25:39.312Z,97046.34
2023-01-21T14:28:34.101Z,97054.86
2023-01-21T14:31:15.462Z,97057.72
2023-01-21T14:33:51.780Z,97060.71
2023-01-21T14:36:47.784Z,97067.06
2023-01-21T14:39:19.337Z,97080.91
2023-01-21T14:42:06.863Z,97080.63
2023-01-21T14:44:59.605Z,97077.29
2023-01-21T14:47:31.057Z,97079.55
2023-01-21T14:50:00.361Z,97078.77
2023-01-21T14:52:45.425Z,97088.63
2023-01-21T14:55:27.639Z,97089.48
2023-01-21T14:57:58.591Z,97088.33
2023-01-21T15:00:34.950Z,97090.11
2023-01-21T15:03:21.745Z,97099.62
2023-01-21T15:05:53.945Z,97097.11
2023-01-21T15:08:22.594Z,97096.09
2023-01-21T15:10:59.165Z,97089.88
2023-01-21T15:13:27.851Z,97091.15
2023-01-21T15:16:06.739Z,97091.19
2023-01-21T15:18:41.825Z,97088.16
2023-01-21T15:21:52.581Z,97087.83
2023-01-21T15:24:39.085Z,97087.11
2023-01-21T15:27:26.205Z,97088.55
2023-01-21T15:29:54.887Z,97089.16
2023-01-21T15:32:53.272Z,97095.11
2023-01-21T15:35:33.136Z,97109.26
2023-01-21T15:38:10.921Z,97110.47
2023-01-21T15:40:43.492Z,97110.48
2023-01-21T15:43:30.615Z,97110.33
2023-01-21T15:46:23.110Z,97107.73
2023-01-21T15:49:25.437Z,97103.70
2023-01-21T15:52:19.969Z,97104.87
2023-01-21T15:55:03.105Z,97113.33
2023-01-21T15:57:48.419Z,97123.23
2023-01-21T16:00:35.880Z,97118.98
2023-01-21T16:03:36.083Z,97117.29
2023-01-21T16:06:12.738Z,97112.72
2023-01-21T16:09:10.510Z,97110.03
2023-01-21T16:11:48.108Z,97108.19
2023-01-21T16:14:25.604Z,97109.75
2023-01-21T16:17:24.590Z,97107.47
2023-01-21T16:19:57.888Z,97122.04
2023-01-21T16:22:30.965Z,97130.10
2023-01-21T16:25:09.592Z,97130.38
2023-01-21T16:27:38.287Z,97136.08
2023-01-21T16:30:12.831Z,97146.16
2023-01-21T16:32:42.509Z,97148.99
2023-01-21T16:35:11.916Z,97157.64
2023-01-21T16:37:44.387Z,97166.80
2023-01-21T16:40:12.975Z,97172.64
2023-01-21T16:42:41.902Z,97174.72
2023-01-21T16:45:26.419Z,97180.41
2023-01-21T16:47:57.467Z,97179.60
2023-01-21T16:50:32.286Z,97182.24
2023-01-21T16:53:07.859Z,97184.31
2023-01-21T16:55:45.219Z,97181.80
2023-01-21T16:58:23.347Z,97181.06
2023-01-21T17:01:16.525Z,97187.25
2023-01-21T17:03:47.998Z,97189.64
2023-01-21T17:06:31.472Z,97186.42
2023-01-21T17:09:07.331Z,97188.64
2023-01-21T17:11:39.090Z,97197.79
2023-01-21T17:14:10.445Z,97200.35
2023-01-21T17:16:41.081Z,97210.02
2023-01-21T17:19:25.623Z,97210.55
2023-01-21T17:22:00.193Z,97208.96
2023-01-21T17:24:37.795Z,97213.54
2023-01-21T17:27:16.872Z,97220.96
2023-01-21T17:29:45.653Z,97224.95
2023-01-21T17:32:27.877Z,97232.80
2023-01-21T17:35:15.544Z,97236.13
2023-01-21T17:37:45.939Z,97237.23
2023-01-21T17:40:42.664Z,97242.99
2023-01-21T17:43:23.086Z,97245.63
2023-01-21T17:45:53.896Z,97237.05
2023-01-21T17:48:34.317Z,97241.98
2023-01-21T17:51:30.806Z,97240.34
2023-01-21T17:54:03.997Z,97241.70
2023-01-21T17:56:50.857Z,97243.04
2023-01-21T17:59:34.643Z,97246.34
2023-01-21T18:02:06.966Z,97243.86
2023-01-21T18:04:35.649Z,97248.63
2023-01-21T18:07:15.295Z,97246.48
2023-01-21T18:09:43.878Z,97246.52
2023-01-21T18:12:12.776Z,97251.23
2023-01-21T18:14:42.171Z,97254.49
2023-01-21T18:17:23.967Z,97260.56
2023-01-21T18:19:53.919Z,97255.73
2023-01-21T18:22:30.754Z,97259.86
2023-01-21T18:25:01.797Z,97260.28
2023-01-21T18:27:32.957Z,97264.04
2023-01-21T18:30:02.158Z,97267.66
2023-01-21T18:32:30.823Z,97266.22
2023-01-21T18:35:01.965Z,97267.65
2023-01-21T18:37:30.554Z,97265.34
2023-01-21T18:39:59.131Z,97266.67
2023-01-21T18:42:27.849Z,97268.40
2023-01-21T18:44:56.405Z,97268.52
2023-01-21T18:47:25.219Z,97268.59
2023-01-21T18:49:54.794Z,97268.15
2023-01-21T18:52:23.491Z,97274.27
2023-01-21T18:54:52.168Z,97284.79
2023-01-21T18:57:23.225Z,97286.60
2023-01-21T18:59:52.668Z,97287.34
2023-01-21T19:02:21.613Z,97293.90
2023-01-21T19:04:50.287Z,97292.38
2023-01-21T19:07:24.167Z,97293.77
2023-01-21T19:09:52.884Z,97293.26
2023-01-21T19:12:23.518Z,97293.09
2023-01-21T19:14:52.609Z,97296.44
2023-01-21T19:17:27.039Z,97298.19
2023-01-21T19:19:56.744Z,97292.05
2023-01-21T19:22:25.324Z,97291.27
2023-01-21T19:24:53.811Z,97287.74
2023-01-21T19:27:25.049Z,97288.21
2023-01-21T19:29:53.732Z,97291.50
2023-01-21T19:32:23.032Z,97292.50
2023-01-21T19:34:51.618Z,97290.59
2023-01-21T19:37:24.119Z,97287.80
2023-01-21T19:39:52.576Z,97286.92
2023-01-21T19:42:21.466Z,97287.98
2023-01-21T19:44:49.943Z,97286.75
2023-01-21T19:47:29.729Z,97292.06
2023-01-21T19:49:58.684Z,97292.29
2023-01-21T19:52:27.262Z,97290.63
2023-01-21T19:54:55.945Z,97287.23
2023-01-21T19:57:24.849Z,97290.43
2023-01-21T19:59:53.732Z,97288.41
2023-01-21T20:02:22.509Z,97287.51
2023-01-21T20:04:51.916Z,97282.12
2023-01-21T20:07:22.670Z,97277.14
2023-01-21T20:09:51.335Z,97273.91
2023-01-21T20:12:20.139Z,97273.05
2023-01-21T20:14:48.909Z,97273.48
2023-01-21T20:17:17.500Z,97268.36
2023-01-21T20:19:46.183Z,97263.94
2023-01-21T20:22:14.763Z,97266.05
2023-01-21T20:24:43.860Z,97265.30
2023-01-21T20:27:14.602Z,97268.59
2023-01-21T20:29:55.732Z,97271.98
2023-01-21T20:32:31.223Z,97274.34
2023-01-21T20:35:00.103Z,97276.27
2023-01-21T20:37:28.795Z,97284.83
2023-01-21T20:39:57.681Z,97288.61
2023-01-21T20:42:27.338Z,97288.98
2023-01-21T20:44:56.688Z,97290.65
2023-01-21T20:47:37.740Z,97298.64
2023-01-21T20:50:19.001Z,97300.48
2023-01-21T20:52:48.553Z,97298.93
2023-01-21T20:55:21.919Z,97288.98
2023-01-21T20:57:50.748Z,97290.89
2023-01-21T21:00:24.445Z,97292.90
2023-01-21T21:02:55.799Z,97297.14
2023-01-21T21:05:27.655Z,97298.36
2023-01-21T21:07:56.745Z,97295.88
2023-01-21T21:10:29.638Z,97295.27
2023-01-21T21:13:01.693Z,97290.27
2023-01-21T21:15:32.336Z,97290.83
2023-01-21T21:18:01.927Z,97290.98
2023-01-21T21:20:38.887Z,97287.21
2023-01-21T21:23:08.055Z,97293.02
2023-01-21T21:25:42.315Z,97293.20
2023-01-21T21:28:14.242Z,97297.84
2023-01-21T21:30:43.972Z,97296.80
2023-01-21T21:33:19.547Z,97295.91
2023-01-21T21:35:50.033Z,97295.06
2023-01-21T21:38:23.371Z,97293.50
2023-01-21T21:40:53.409Z,97291.23
2023-01-21T21:43:39.178Z,97296.01
2023-01-21T21:46:32.029Z,97290.14
2023-01-21T21:49:00.714Z,97288.85
2023-01-21T21:51:32.155Z,97288.61
2023-01-21T21:54:01.165Z,97294.44
2023-01-21T21:56:30.280Z,97289.84
2023-01-21T21:58:59.033Z,97290.17
2023-01-21T22:01:30.600Z,97281.56
2023-01-21T22:04:00.713Z,97280.77
2023-01-21T22:06:30.077Z,97280.17
2023-01-21T22:09:00.030Z,97279.16
2023-01-21T22:11:29.317Z,97273.48
2023-01-21T22:14:04.222Z,97277.92
2023-01-21T22:16:34.068Z,97281.02
2023-01-21T22:19:02.955Z,97281.55
2023-01-21T22:21:34.004Z,97283.09
2023-01-21T22:24:05.865Z,97284.77
2023-01-21T22:26:37.967Z,97281.21
2023-01-21T22:29:06.709Z,97285.98
2023-01-21T22:31:35.679Z,97285.73
2023-01-21T22:34:05.525Z,97292.80
2023-01-21T22:36:34.816Z,97286.46
2023-01-21T22:39:03.812Z,97279.72
2023-01-21T22:41:33.208Z,97279.38
2023-01-21T22:44:02.023Z,97278.52
2023-01-21T22:46:32.086Z,97279.55
2023-01-21T22:49:00.910Z,97281.61
2023-01-21T22:51:30.029Z,97285.77
2023-01-21T22:54:00.548Z,97281.02
2023-01-21T22:56:49.474Z,97287.20
2023-01-21T22:59:17.992Z,97290.44
2023-01-21T23:01:48.926Z,97290.89
2023-01-21T23:04:18.211Z,97285.03
2023-01-21T23:06:49.058Z,97290.80
2023-01-21T23:09:18.071Z,97291.37
2023-01-21T23:11:47.542Z,97289.38
2023-01-21T23:14:17.559Z,97291.02
2023-01-21T23:16:47.171Z,97291.85
2023-01-21T23:19:16.567Z,97297.61
2023-01-21T23:21:45.558Z,97302.04
2023-01-21T23:24:14.349Z,97310.91
2023-01-21T23:26:43.651Z,97309.91
2023-01-21T23:29:12.547Z,97310.45
2023-01-21T23:31:41.404Z,97312.51
2023-01-21T23:34:14.544Z,97320.89
2023-01-21T23:36:44.341Z,97317.41
2023-01-21T23:39:13.317Z,97325.88
2023-01-21T23:41:42.025Z,97325.81
2023-01-21T23:44:11.207Z,97330.02
2023-01-21T23:46:39.999Z,97328.55
2023-01-21T23:49:08.684Z,97326.77
2023-01-21T23:51:37.777Z,97327.50
2023-01-21T23:54:06.673Z,97327.90
2023-01-21T23:56:35.654Z,97333.16
2023-01-21T23:59:04.449Z,97338.45
